sensor_id;sensor_type;location;lat;lon;timestamp;P1;P2;P0
49686;PMS5003;36064;38.180;-122.272;2022-10-17T00:00:00;6.4;7.0;
49686;PMS5003;36064;38.180;-122.272;2022-10-17T00:05:01;7.4;5.0;
49686;PMS5003;36064;38.180;-122.272;2022-10-17T00:10:00;9.4;7.0;
49686;PMS5003;36064;38.180;-122.272;2022-10-17T00:15:03;8.6;7.4;
49686;PMS5003;36064;38.180;-122.272;2022-10-17T00:20:01;8.6;6.0;
49686;PMS5003;36064;38.180;-122.272;2022-10-17T00:25:00;6.4;5.4;
49686;PMS5003;36064;38.180;-122.272;2022-10-17T00:30:00;6.8;5.8;
49686;PMS5003;36064;38.180;-122.272;2022-10-17T00:35:01;6.2;6.0;
49686;PMS5003;36064;38.180;-122.272;2022-10-17T00:40:00;4.8;4.0;
49686;PMS5003;36064;38.180;-122.272;2022-10-17T00:45:09;5.8;4.6;
49686;PMS5003;36064;38.180;-122.272;2022-10-17T00:50:00;4.6;4.2;
49686;PMS5003;36064;38.180;-122.272;2022-10-17T00:55:01;5.6;4.8;
49686;PMS5003;36064;38.180;-122.272;2022-10-17T01:00:01;4.6;4.6;
49686;PMS5003;36064;38.180;-122.272;2022-10-17T01:05:00;3.0;3.0;
49686;PMS5003;36064;38.180;-122.272;2022-10-17T01:10:00;4.0;4.0;
49686;PMS5003;36064;38.180;-122.272;2022-10-17T01:15:04;6.2;5.8;
49686;PMS5003;36064;38.180;-122.272;2022-10-17T01:25:06;5.4;4.6;
49686;PMS5003;36064;38.180;-122.272;2022-10-17T01:30:06;5.2;4.0;
49686;PMS5003;36064;38.180;-122.272;2022-10-17T01:35:03;5.4;4.6;
49686;PMS5003;36064;38.180;-122.272;2022-10-17T01:40:02;7.2;6.4;
49686;PMS5003;36064;38.180;-122.272;2022-10-17T01:45:02;3.0;3.0;
49686;PMS5003;36064;38.180;-122.272;2022-10-17T01:50:02;4.4;4.4;
49686;PMS5003;36064;38.180;-122.272;2022-10-17T01:55:02;7.0;4.8;
49686;PMS5003;36064;38.180;-122.272;2022-10-17T02:00:00;4.2;4.2;
49686;PMS5003;36064;38.180;-122.272;2022-10-17T02:05:01;4.4;4.4;
49686;PMS5003;36064;38.180;-122.272;2022-10-17T02:10:00;4.0;4.0;
49686;PMS5003;36064;38.180;-122.272;2022-10-17T02:15:05;5.4;4.2;
49686;PMS5003;36064;38.180;-122.272;2022-10-17T02:20:02;3.2;3.2;
49686;PMS5003;36064;38.180;-122.272;2022-10-17T02:25:02;4.2;3.4;
49686;PMS5003;36064;38.180;-122.272;2022-10-17T02:30:02;3.2;3.2;
49686;PMS5003;36064;38.180;-122.272;2022-10-17T02:35:01;4.4;4.4;
49686;PMS5003;36064;38.180;-122.272;2022-10-17T02:40:00;5.0;4.6;
49686;PMS5003;36064;38.180;-122.272;2022-10-17T02:45:00;4.2;3.4;
49686;PMS5003;36064;38.180;-122.272;2022-10-17T02:50:00;4.6;4.4;
49686;PMS5003;36064;38.180;-122.272;2022-10-17T02:55:02;4.0;3.8;
49686;PMS5003;36064;38.180;-122.272;2022-10-17T03:00:00;7.2;5.6;
49686;PMS5003;36064;38.180;-122.272;2022-10-17T03:05:00;3.6;3.6;
49686;PMS5003;36064;38.180;-122.272;2022-10-17T03:10:00;6.0;4.6;
49686;PMS5003;36064;38.180;-122.272;2022-10-17T03:15:00;4.2;4.2;
49686;PMS5003;36064;38.180;-122.272;2022-10-17T03:20:00;4.6;4.4;
49686;PMS5003;36064;38.180;-122.272;2022-10-17T03:25:00;4.8;3.6;
49686;PMS5003;36064;38.180;-122.272;2022-10-17T03:30:00;5.6;4.6;
49686;PMS5003;36064;38.180;-122.272;2022-10-17T03:35:00;4.8;4.8;
49686;PMS5003;36064;38.180;-122.272;2022-10-17T03:40:00;5.0;4.2;
49686;PMS5003;36064;38.180;-122.272;2022-10-17T03:45:00;5.6;5.2;
49686;PMS5003;36064;38.180;-122.272;2022-10-17T03:50:00;4.8;5.2;
49686;PMS5003;36064;38.180;-122.272;2022-10-17T03:55:00;6.8;5.8;
49686;PMS5003;36064;38.180;-122.272;2022-10-17T04:00:00;6.0;5.6;
49686;PMS5003;36064;38.180;-122.272;2022-10-17T04:05:00;4.4;3.8;
49686;PMS5003;36064;38.180;-122.272;2022-10-17T04:10:00;3.6;3.6;
49686;PMS5003;36064;38.180;-122.272;2022-10-17T04:15:00;3.6;3.6;
49686;PMS5003;36064;38.180;-122.272;2022-10-17T04:20:00;4.2;3.6;
49686;PMS5003;36064;38.180;-122.272;2022-10-17T04:25:00;4.2;3.4;
49686;PMS5003;36064;38.180;-122.272;2022-10-17T04:30:00;3.0;2.8;
49686;PMS5003;36064;38.180;-122.272;2022-10-17T04:35:00;6.6;4.6;
49686;PMS5003;36064;38.180;-122.272;2022-10-17T04:40:00;5.6;4.8;
49686;PMS5003;36064;38.180;-122.272;2022-10-17T04:45:00;3.8;4.2;
49686;PMS5003;36064;38.180;-122.272;2022-10-17T04:50:00;4.8;5.2;
49686;PMS5003;36064;38.180;-122.272;2022-10-17T04:55:00;6.2;5.4;
49686;PMS5003;36064;38.180;-122.272;2022-10-17T05:00:00;6.2;6.0;
49686;PMS5003;36064;38.180;-122.272;2022-10-17T05:05:00;6.8;5.4;
49686;PMS5003;36064;38.180;-122.272;2022-10-17T05:10:00;5.6;5.0;
49686;PMS5003;36064;38.180;-122.272;2022-10-17T05:15:00;6.0;4.8;
49686;PMS5003;36064;38.180;-122.272;2022-10-17T05:20:00;6.8;6.2;
49686;PMS5003;36064;38.180;-122.272;2022-10-17T05:25:00;4.2;3.8;
49686;PMS5003;36064;38.180;-122.272;2022-10-17T05:30:00;4.4;4.2;
49686;PMS5003;36064;38.180;-122.272;2022-10-17T05:35:00;4.4;4.0;
49686;PMS5003;36064;38.180;-122.272;2022-10-17T05:40:00;4.0;4.0;
49686;PMS5003;36064;38.180;-122.272;2022-10-17T05:45:00;5.6;5.2;
49686;PMS5003;36064;38.180;-122.272;2022-10-17T05:50:00;6.4;5.2;
49686;PMS5003;36064;38.180;-122.272;2022-10-17T05:55:00;5.4;5.8;
49686;PMS5003;36064;38.180;-122.272;2022-10-17T06:00:00;4.8;3.8;
49686;PMS5003;36064;38.180;-122.272;2022-10-17T06:05:00;6.4;5.8;
49686;PMS5003;36064;38.180;-122.272;2022-10-17T06:10:00;5.6;5.4;
49686;PMS5003;36064;38.180;-122.272;2022-10-17T06:15:00;5.6;5.2;
49686;PMS5003;36064;38.180;-122.272;2022-10-17T06:20:00;5.8;5.2;
49686;PMS5003;36064;38.180;-122.272;2022-10-17T06:25:01;6.4;6.0;
49686;PMS5003;36064;38.180;-122.272;2022-10-17T06:30:00;6.4;6.2;
49686;PMS5003;36064;38.180;-122.272;2022-10-17T06:35:00;6.6;5.0;
49686;PMS5003;36064;38.180;-122.272;2022-10-17T06:40:00;6.2;5.8;
49686;PMS5003;36064;38.180;-122.272;2022-10-17T06:45:00;7.2;6.4;
49686;PMS5003;36064;38.180;-122.272;2022-10-17T06:50:00;10.2;9.0;
49686;PMS5003;36064;38.180;-122.272;2022-10-17T06:55:00;7.4;7.6;
49686;PMS5003;36064;38.180;-122.272;2022-10-17T07:00:00;10.8;7.8;
49686;PMS5003;36064;38.180;-122.272;2022-10-17T07:05:00;5.4;5.4;
49686;PMS5003;36064;38.180;-122.272;2022-10-17T07:10:00;6.2;5.8;
49686;PMS5003;36064;38.180;-122.272;2022-10-17T07:15:00;5.4;5.0;
49686;PMS5003;36064;38.180;-122.272;2022-10-17T07:20:00;8.0;8.0;
49686;PMS5003;36064;38.180;-122.272;2022-10-17T07:25:00;5.2;4.8;
49686;PMS5003;36064;38.180;-122.272;2022-10-17T07:30:00;7.4;6.6;
49686;PMS5003;36064;38.180;-122.272;2022-10-17T07:35:00;7.8;6.8;
49686;PMS5003;36064;38.180;-122.272;2022-10-17T07:40:00;7.2;5.2;
49686;PMS5003;36064;38.180;-122.272;2022-10-17T07:45:00;5.0;5.6;
49686;PMS5003;36064;38.180;-122.272;2022-10-17T07:50:00;7.2;6.8;
49686;PMS5003;36064;38.180;-122.272;2022-10-17T07:55:00;6.0;5.4;
49686;PMS5003;36064;38.180;-122.272;2022-10-17T08:00:00;5.8;6.0;
49686;PMS5003;36064;38.180;-122.272;2022-10-17T08:05:00;7.0;6.0;
49686;PMS5003;36064;38.180;-122.272;2022-10-17T08:10:00;7.0;7.0;
49686;PMS5003;36064;38.180;-122.272;2022-10-17T08:15:00;10.8;9.8;
49686;PMS5003;36064;38.180;-122.272;2022-10-17T08:20:00;9.6;9.8;
49686;PMS5003;36064;38.180;-122.272;2022-10-17T08:25:00;6.8;8.0;
49686;PMS5003;36064;38.180;-122.272;2022-10-17T08:30:00;8.0;7.2;
49686;PMS5003;36064;38.180;-122.272;2022-10-17T08:35:00;8.8;7.6;
49686;PMS5003;36064;38.180;-122.272;2022-10-17T08:40:00;6.6;5.8;
49686;PMS5003;36064;38.180;-122.272;2022-10-17T08:45:03;6.4;6.4;
49686;PMS5003;36064;38.180;-122.272;2022-10-17T08:50:01;9.28;7.28;
49686;PMS5003;36064;38.180;-122.272;2022-10-17T08:55:00;8.71;7.35;
49686;PMS5003;36064;38.180;-122.272;2022-10-17T09:00:00;6.2;6.2;
49686;PMS5003;36064;38.180;-122.272;2022-10-17T09:05:07;6.2;6.6;
49686;PMS5003;36064;38.180;-122.272;2022-10-17T09:10:02;7.8;7.2;
49686;PMS5003;36064;38.180;-122.272;2022-10-17T09:20:03;7.0;7.0;
49686;PMS5003;36064;38.180;-122.272;2022-10-17T09:25:02;9.0;8.0;
49686;PMS5003;36064;38.180;-122.272;2022-10-17T09:30:05;7.2;8.0;
49686;PMS5003;36064;38.180;-122.272;2022-10-17T09:35:00;7.6;6.4;
49686;PMS5003;36064;38.180;-122.272;2022-10-17T09:40:00;7.2;6.8;
49686;PMS5003;36064;38.180;-122.272;2022-10-17T09:45:03;8.8;7.2;
49686;PMS5003;36064;38.180;-122.272;2022-10-17T09:50:00;8.0;8.0;
49686;PMS5003;36064;38.180;-122.272;2022-10-17T09:55:02;9.4;7.4;
49686;PMS5003;36064;38.180;-122.272;2022-10-17T10:00:02;8.6;7.8;
49686;PMS5003;36064;38.180;-122.272;2022-10-17T10:05:02;8.8;8.0;
49686;PMS5003;36064;38.180;-122.272;2022-10-17T10:10:01;10.2;9.2;
49686;PMS5003;36064;38.180;-122.272;2022-10-17T10:15:00;7.8;7.4;
49686;PMS5003;36064;38.180;-122.272;2022-10-17T10:20:01;12.4;10.8;
49686;PMS5003;36064;38.180;-122.272;2022-10-17T10:25:07;12.0;10.6;
49686;PMS5003;36064;38.180;-122.272;2022-10-17T10:30:00;10.4;10.0;
49686;PMS5003;36064;38.180;-122.272;2022-10-17T10:35:02;13.8;12.2;
49686;PMS5003;36064;38.180;-122.272;2022-10-17T10:40:01;9.6;8.8;
49686;PMS5003;36064;38.180;-122.272;2022-10-17T10:45:01;10.0;10.0;
49686;PMS5003;36064;38.180;-122.272;2022-10-17T10:50:15;7.8;7.2;
49686;PMS5003;36064;38.180;-122.272;2022-10-17T10:55:03;8.0;7.0;
49686;PMS5003;36064;38.180;-122.272;2022-10-17T11:00:03;10.6;10.2;
49686;PMS5003;36064;38.180;-122.272;2022-10-17T11:05:02;9.4;8.2;
49686;PMS5003;36064;38.180;-122.272;2022-10-17T11:10:05;9.8;9.0;
49686;PMS5003;36064;38.180;-122.272;2022-10-17T11:15:02;8.0;7.6;
49686;PMS5003;36064;38.180;-122.272;2022-10-17T11:20:04;10.4;9.4;
49686;PMS5003;36064;38.180;-122.272;2022-10-17T11:25:02;10.0;9.2;
49686;PMS5003;36064;38.180;-122.272;2022-10-17T11:30:00;9.4;8.8;
49686;PMS5003;36064;38.180;-122.272;2022-10-17T11:35:02;10.2;7.8;
49686;PMS5003;36064;38.180;-122.272;2022-10-17T11:40:02;11.78;10.98;
49686;PMS5003;36064;38.180;-122.272;2022-10-17T11:45:01;12.8;11.0;
49686;PMS5003;36064;38.180;-122.272;2022-10-17T11:50:02;9.6;8.8;
49686;PMS5003;36064;38.180;-122.272;2022-10-17T11:55:02;7.6;7.4;
49686;PMS5003;36064;38.180;-122.272;2022-10-17T12:00:05;13.4;12.2;
49686;PMS5003;36064;38.180;-122.272;2022-10-17T12:05:02;9.0;8.6;
49686;PMS5003;36064;38.180;-122.272;2022-10-17T12:10:03;7.2;8.2;
49686;PMS5003;36064;38.180;-122.272;2022-10-17T12:25:02;11.8;11.8;
49686;PMS5003;36064;38.180;-122.272;2022-10-17T12:30:02;8.2;7.2;
49686;PMS5003;36064;38.180;-122.272;2022-10-17T12:35:00;7.4;7.0;
49686;PMS5003;36064;38.180;-122.272;2022-10-17T12:40:00;11.4;10.6;
49686;PMS5003;36064;38.180;-122.272;2022-10-17T12:45:00;9.0;8.6;
49686;PMS5003;36064;38.180;-122.272;2022-10-17T12:50:00;15.0;14.4;
49686;PMS5003;36064;38.180;-122.272;2022-10-17T12:55:06;10.0;9.4;
49686;PMS5003;36064;38.180;-122.272;2022-10-17T13:00:03;12.2;10.6;
49686;PMS5003;36064;38.180;-122.272;2022-10-17T13:05:03;9.8;9.0;
49686;PMS5003;36064;38.180;-122.272;2022-10-17T13:10:00;8.8;7.6;
49686;PMS5003;36064;38.180;-122.272;2022-10-17T13:15:00;9.8;9.8;
49686;PMS5003;36064;38.180;-122.272;2022-10-17T13:20:00;14.6;13.2;
49686;PMS5003;36064;38.180;-122.272;2022-10-17T13:25:11;11.0;9.2;
49686;PMS5003;36064;38.180;-122.272;2022-10-17T13:30:01;9.8;8.8;
49686;PMS5003;36064;38.180;-122.272;2022-10-17T13:35:04;11.4;9.2;
49686;PMS5003;36064;38.180;-122.272;2022-10-17T13:40:01;11.4;8.8;
49686;PMS5003;36064;38.180;-122.272;2022-10-17T13:45:00;9.8;9.2;
49686;PMS5003;36064;38.180;-122.272;2022-10-17T13:50:00;11.8;10.6;
49686;PMS5003;36064;38.180;-122.272;2022-10-17T13:55:11;10.6;10.2;
49686;PMS5003;36064;38.180;-122.272;2022-10-17T14:00:03;10.0;8.8;
49686;PMS5003;36064;38.180;-122.272;2022-10-17T14:05:01;8.4;7.8;
49686;PMS5003;36064;38.180;-122.272;2022-10-17T14:10:00;10.6;9.8;
49686;PMS5003;36064;38.180;-122.272;2022-10-17T14:15:01;13.21;13.21;
49686;PMS5003;36064;38.180;-122.272;2022-10-17T14:20:01;13.0;10.2;
49686;PMS5003;36064;38.180;-122.272;2022-10-17T14:25:01;15.2;10.8;
49686;PMS5003;36064;38.180;-122.272;2022-10-17T14:30:01;13.2;12.8;
49686;PMS5003;36064;38.180;-122.272;2022-10-17T14:35:01;14.8;14.0;
49686;PMS5003;36064;38.180;-122.272;2022-10-17T14:40:01;15.4;14.2;
49686;PMS5003;36064;38.180;-122.272;2022-10-17T14:45:03;12.6;11.0;
49686;PMS5003;36064;38.180;-122.272;2022-10-17T14:50:03;14.8;13.8;
49686;PMS5003;36064;38.180;-122.272;2022-10-17T15:00:00;12.8;12.8;
49686;PMS5003;36064;38.180;-122.272;2022-10-17T15:05:00;13.4;11.8;
49686;PMS5003;36064;38.180;-122.272;2022-10-17T15:10:00;13.8;12.79;
49686;PMS5003;36064;38.180;-122.272;2022-10-17T15:15:00;13.6;12.0;
49686;PMS5003;36064;38.180;-122.272;2022-10-17T15:20:00;11.4;11.0;
49686;PMS5003;36064;38.180;-122.272;2022-10-17T15:25:00;13.0;12.4;
49686;PMS5003;36064;38.180;-122.272;2022-10-17T15:30:00;15.8;14.4;
49686;PMS5003;36064;38.180;-122.272;2022-10-17T15:35:00;14.0;12.8;
49686;PMS5003;36064;38.180;-122.272;2022-10-17T15:40:00;20.2;17.0;
49686;PMS5003;36064;38.180;-122.272;2022-10-17T15:45:00;17.78;14.79;
49686;PMS5003;36064;38.180;-122.272;2022-10-17T15:50:00;15.4;14.0;
49686;PMS5003;36064;38.180;-122.272;2022-10-17T15:55:00;16.8;15.0;
49686;PMS5003;36064;38.180;-122.272;2022-10-17T16:00:00;16.6;15.8;
49686;PMS5003;36064;38.180;-122.272;2022-10-17T16:05:00;14.0;13.2;
49686;PMS5003;36064;38.180;-122.272;2022-10-17T16:10:00;18.6;16.21;
49686;PMS5003;36064;38.180;-122.272;2022-10-17T16:15:00;16.61;15.42;
49686;PMS5003;36064;38.180;-122.272;2022-10-17T16:20:00;17.2;15.4;
49686;PMS5003;36064;38.180;-122.272;2022-10-17T16:25:00;15.4;15.0;
49686;PMS5003;36064;38.180;-122.272;2022-10-17T16:30:01;15.2;15.2;
49686;PMS5003;36064;38.180;-122.272;2022-10-17T16:35:00;16.2;15.0;
49686;PMS5003;36064;38.180;-122.272;2022-10-17T16:40:00;16.8;14.0;
49686;PMS5003;36064;38.180;-122.272;2022-10-17T16:45:00;15.4;13.6;
49686;PMS5003;36064;38.180;-122.272;2022-10-17T16:50:00;17.4;15.6;
49686;PMS5003;36064;38.180;-122.272;2022-10-17T16:55:00;17.2;16.6;
49686;PMS5003;36064;38.180;-122.272;2022-10-17T17:00:00;14.4;13.4;
49686;PMS5003;36064;38.180;-122.272;2022-10-17T17:05:00;16.4;15.0;
49686;PMS5003;36064;38.180;-122.272;2022-10-17T17:10:00;12.8;12.0;
49686;PMS5003;36064;38.180;-122.272;2022-10-17T17:15:01;17.2;15.2;
49686;PMS5003;36064;38.180;-122.272;2022-10-17T17:20:00;15.0;13.2;
49686;PMS5003;36064;38.180;-122.272;2022-10-17T17:25:00;16.6;15.0;
49686;PMS5003;36064;38.180;-122.272;2022-10-17T17:30:00;14.2;13.2;
49686;PMS5003;36064;38.180;-122.272;2022-10-17T17:35:00;12.4;11.0;
49686;PMS5003;36064;38.180;-122.272;2022-10-17T17:40:00;15.0;13.6;
49686;PMS5003;36064;38.180;-122.272;2022-10-17T17:45:00;11.4;11.0;
49686;PMS5003;36064;38.180;-122.272;2022-10-17T17:50:00;13.2;11.8;
49686;PMS5003;36064;38.180;-122.272;2022-10-17T17:55:00;14.8;14.0;
49686;PMS5003;36064;38.180;-122.272;2022-10-17T18:00:00;10.8;12.0;
49686;PMS5003;36064;38.180;-122.272;2022-10-17T18:05:00;11.0;10.0;
49686;PMS5003;36064;38.180;-122.272;2022-10-17T18:10:00;12.0;11.2;
49686;PMS5003;36064;38.180;-122.272;2022-10-17T18:15:00;11.8;11.21;
49686;PMS5003;36064;38.180;-122.272;2022-10-17T18:20:00;9.2;8.8;
49686;PMS5003;36064;38.180;-122.272;2022-10-17T18:25:01;9.2;8.2;
49686;PMS5003;36064;38.180;-122.272;2022-10-17T18:30:00;9.0;9.0;
49686;PMS5003;36064;38.180;-122.272;2022-10-17T18:35:00;13.4;13.4;
49686;PMS5003;36064;38.180;-122.272;2022-10-17T18:40:01;9.4;9.0;
49686;PMS5003;36064;38.180;-122.272;2022-10-17T18:45:00;13.4;12.6;
49686;PMS5003;36064;38.180;-122.272;2022-10-17T18:50:00;10.4;8.8;
49686;PMS5003;36064;38.180;-122.272;2022-10-17T18:55:00;8.6;7.8;
49686;PMS5003;36064;38.180;-122.272;2022-10-17T19:00:00;11.0;9.6;
49686;PMS5003;36064;38.180;-122.272;2022-10-17T19:05:00;11.2;9.6;
49686;PMS5003;36064;38.180;-122.272;2022-10-17T19:10:00;10.2;9.2;
49686;PMS5003;36064;38.180;-122.272;2022-10-17T19:15:00;8.4;7.4;
49686;PMS5003;36064;38.180;-122.272;2022-10-17T19:20:00;11.2;10.2;
49686;PMS5003;36064;38.180;-122.272;2022-10-17T19:25:01;9.2;8.0;
49686;PMS5003;36064;38.180;-122.272;2022-10-17T19:30:00;6.8;6.8;
49686;PMS5003;36064;38.180;-122.272;2022-10-17T19:35:00;10.6;9.4;
49686;PMS5003;36064;38.180;-122.272;2022-10-17T19:40:00;11.4;11.4;
49686;PMS5003;36064;38.180;-122.272;2022-10-17T19:45:00;11.4;9.2;
49686;PMS5003;36064;38.180;-122.272;2022-10-17T19:50:00;11.4;11.0;
49686;PMS5003;36064;38.180;-122.272;2022-10-17T19:55:00;12.42;10.61;
49686;PMS5003;36064;38.180;-122.272;2022-10-17T20:00:00;9.83;7.8;
49686;PMS5003;36064;38.180;-122.272;2022-10-17T20:05:00;9.6;8.6;
49686;PMS5003;36064;38.180;-122.272;2022-10-17T20:10:00;12.8;12.0;
49686;PMS5003;36064;38.180;-122.272;2022-10-17T20:15:00;12.8;10.2;
49686;PMS5003;36064;38.180;-122.272;2022-10-17T20:20:00;9.0;9.0;
49686;PMS5003;36064;38.180;-122.272;2022-10-17T20:25:00;12.4;12.0;
49686;PMS5003;36064;38.180;-122.272;2022-10-17T20:30:00;10.2;10.0;
49686;PMS5003;36064;38.180;-122.272;2022-10-17T20:35:00;12.4;11.6;
49686;PMS5003;36064;38.180;-122.272;2022-10-17T20:40:00;9.0;8.2;
49686;PMS5003;36064;38.180;-122.272;2022-10-17T20:45:00;10.4;9.2;
49686;PMS5003;36064;38.180;-122.272;2022-10-17T20:50:00;9.4;8.4;
49686;PMS5003;36064;38.180;-122.272;2022-10-17T20:55:00;9.2;8.2;
49686;PMS5003;36064;38.180;-122.272;2022-10-17T21:00:00;12.8;11.6;
49686;PMS5003;36064;38.180;-122.272;2022-10-17T21:05:00;14.2;11.6;
49686;PMS5003;36064;38.180;-122.272;2022-10-17T21:10:00;10.6;10.6;
49686;PMS5003;36064;38.180;-122.272;2022-10-17T21:15:01;8.8;8.8;
49686;PMS5003;36064;38.180;-122.272;2022-10-17T21:20:00;12.0;10.6;
49686;PMS5003;36064;38.180;-122.272;2022-10-17T21:25:00;9.6;9.8;
49686;PMS5003;36064;38.180;-122.272;2022-10-17T21:30:00;8.8;8.6;
49686;PMS5003;36064;38.180;-122.272;2022-10-17T21:35:00;8.8;8.8;
49686;PMS5003;36064;38.180;-122.272;2022-10-17T21:40:00;9.6;8.6;
49686;PMS5003;36064;38.180;-122.272;2022-10-17T21:45:00;11.0;10.8;
49686;PMS5003;36064;38.180;-122.272;2022-10-17T21:50:00;9.2;9.2;
49686;PMS5003;36064;38.180;-122.272;2022-10-17T21:55:00;10.4;9.6;
49686;PMS5003;36064;38.180;-122.272;2022-10-17T22:00:00;9.0;8.2;
49686;PMS5003;36064;38.180;-122.272;2022-10-17T22:05:00;11.6;10.0;
49686;PMS5003;36064;38.180;-122.272;2022-10-17T22:10:00;9.8;9.8;
49686;PMS5003;36064;38.180;-122.272;2022-10-17T22:15:00;10.2;9.4;
49686;PMS5003;36064;38.180;-122.272;2022-10-17T22:20:00;9.6;7.4;
49686;PMS5003;36064;38.180;-122.272;2022-10-17T22:25:00;10.8;9.6;
49686;PMS5003;36064;38.180;-122.272;2022-10-17T22:35:00;9.2;7.6;
49686;PMS5003;36064;38.180;-122.272;2022-10-17T22:40:00;10.6;9.8;
49686;PMS5003;36064;38.180;-122.272;2022-10-17T22:45:00;11.8;10.6;
49686;PMS5003;36064;38.180;-122.272;2022-10-17T22:50:00;8.0;7.4;
49686;PMS5003;36064;38.180;-122.272;2022-10-17T22:55:00;10.8;10.0;
49686;PMS5003;36064;38.180;-122.272;2022-10-17T23:00:00;10.8;10.4;
49686;PMS5003;36064;38.180;-122.272;2022-10-17T23:05:00;10.0;9.2;
49686;PMS5003;36064;38.180;-122.272;2022-10-17T23:10:01;10.4;8.2;
49686;PMS5003;36064;38.180;-122.272;2022-10-17T23:15:00;11.19;9.18;
49686;PMS5003;36064;38.180;-122.272;2022-10-17T23:20:00;8.4;7.4;
49686;PMS5003;36064;38.180;-122.272;2022-10-17T23:25:00;9.6;7.8;
49686;PMS5003;36064;38.180;-122.272;2022-10-17T23:30:00;12.8;12.0;
49686;PMS5003;36064;38.180;-122.272;2022-10-17T23:35:00;12.6;11.0;
49686;PMS5003;36064;38.180;-122.272;2022-10-17T23:40:00;8.2;7.2;
49686;PMS5003;36064;38.180;-122.272;2022-10-17T23:45:00;9.0;8.8;
49686;PMS5003;36064;38.180;-122.272;2022-10-17T23:50:00;12.22;10.87;
49686;PMS5003;36064;38.180;-122.272;2022-10-17T23:55:00;11.2;10.4;
